| time (UTC) | temp F | wind direction | speed knots | gust knots | rain 1hr in | rain 24hr in | rain mn in | humidity % | barometer mb |
| 20260906121204 | 71 | 298 | 0.0 | 0.0 | 0.00 | 0.47 | 0.00 | 96 | 1013.2 |
| 20260906114204 | 71 | 298 | 0.0 | 0.0 | 0.00 | 0.47 | 0.00 | 95 | 1013.0 |
| 20260906113204 | 71 | 298 | 0.0 | 0.0 | 0.00 | 0.47 | 0.00 | 95 | 1012.9 |
| 20260906111204 | 71 | 298 | 0.0 | 0.0 | 0.00 | 0.47 | 0.00 | 95 | 1012.9 |
| 20260906110203 | 71 | 298 | 0.0 | 0.0 | 0.00 | 0.47 | 0.00 | 95 | 1013.1 |
| 20260906104203 | 72 | 298 | 0.0 | 0.0 | 0.00 | 0.47 | 0.00 | 96 | 1013.0 |
| 20260906103204 | 71 | 298 | 0.0 | 0.0 | 0.00 | 0.47 | 0.00 | 95 | 1012.8 |
| 20260906101204 | 71 | 298 | 0.0 | 0.0 | 0.00 | 0.47 | 0.00 | 95 | 1012.9 |
| 20260906100205 | 71 | 298 | 0.0 | 0.0 | 0.00 | 0.47 | 0.00 | 95 | 1013.0 |
| 20260906094204 | 71 | 298 | 0.0 | 0.0 | 0.00 | 0.47 | 0.00 | 95 | 1013.0 |
| 20260906091203 | 71 | 298 | 0.0 | 0.0 | 0.00 | 0.47 | 0.00 | 95 | 1012.8 |
| 20260906090203 | 71 | 298 | 0.0 | 0.0 | 0.00 | 0.47 | 0.00 | 95 | 1012.9 |
| 20260906084204 | 71 | 298 | 0.0 | 0.0 | 0.00 | 0.47 | 0.00 | 95 | 1012.9 |
| 20260906083204 | 71 | 298 | 0.0 | 0.0 | 0.00 | 0.47 | 0.00 | 95 | 1012.8 |
| 20260906081204 | 71 | 298 | 0.0 | 0.0 | 0.00 | 0.47 | 0.00 | 95 | 1012.7 |
| 20260906080205 | 71 | 298 | 0.0 | 0.0 | 0.00 | 0.47 | 0.00 | 95 | 1012.8 |
| 20260906074204 | 71 | 298 | 0.0 | 0.0 | 0.00 | 0.47 | 0.00 | 95 | 1012.7 |
| 20260906073204 | 71 | 298 | 0.0 | 0.0 | 0.00 | 0.47 | 0.00 | 95 | 1012.6 |
| 20260906071204 | 72 | 298 | 0.0 | 0.0 | 0.00 | 0.47 | 0.00 | 95 | 1012.6 |
| 20260906070204 | 72 | 298 | 0.0 | 0.0 | 0.00 | 0.47 | 0.00 | 95 | 1012.6 |
| 20260906063205 | 72 | 298 | 0.0 | 0.0 | 0.00 | 0.47 | 0.00 | 94 | 1012.8 |
| 20260906061204 | 72 | 298 | 0.0 | 0.0 | 0.00 | 0.47 | 0.00 | 94 | 1013.1 |
| 20260906060204 | 72 | 298 | 0.0 | 0.0 | 0.00 | 0.47 | 0.00 | 94 | 1013.1 |
| 20260906054204 | 72 | 298 | 0.0 | 0.0 | 0.00 | 0.47 | 0.00 | 94 | 1013.1 |
| 20260906050203 | 72 | 298 | 0.0 | 0.0 | 0.00 | 0.47 | 0.00 | 94 | 1013.5 |
| 20260906044204 | 73 | 298 | 0.0 | 0.0 | 0.00 | 0.47 | 0.00 | 94 | 1013.5 |
| 20260906041203 | 73 | 298 | 0.0 | 0.0 | 0.00 | 0.47 | 0.00 | 94 | 1013.4 |
| 20260906034205 | 73 | 298 | 0.0 | 0.0 | 0.00 | 0.47 | 0.47 | 94 | 1013.6 |
| 20260906031205 | 73 | 298 | 0.0 | 0.0 | 0.00 | 0.47 | 0.47 | 93 | 1013.9 |
| 20260906030204 | 73 | 298 | 0.0 | 0.0 | 0.00 | 0.47 | 0.47 | 93 | 1013.8 |
| 20260906024203 | 73 | 298 | 0.0 | 0.0 | 0.00 | 0.47 | 0.47 | 93 | 1014.0 |
| 20260906023204 | 74 | 298 | 0.0 | 0.0 | 0.00 | 0.47 | 0.47 | 93 | 1014.1 |
| 20260906021204 | 74 | 298 | 0.0 | 0.0 | 0.00 | 0.47 | 0.47 | 93 | 1014.3 |
| 20260906020204 | 74 | 298 | 0.0 | 0.0 | 0.00 | 0.47 | 0.47 | 93 | 1014.2 |
| 20260906014204 | 74 | 298 | 0.0 | 0.0 | 0.00 | 0.47 | 0.47 | 93 | 1014.1 |
| 20260906013204 | 74 | 298 | 0.0 | 0.0 | 0.00 | 0.47 | 0.47 | 93 | 1013.9 |
| 20260906011204 | 74 | 298 | 0.0 | 0.0 | 0.00 | 0.47 | 0.47 | 93 | 1013.7 |
| 20260906010204 | 74 | 298 | 0.0 | 0.0 | 0.00 | 0.47 | 0.47 | 93 | 1013.2 |
| 20260906004204 | 74 | 298 | 0.0 | 0.0 | 0.00 | 0.47 | 0.47 | 92 | 1013.2 |
| 20260906003204 | 74 | 298 | 0.0 | 0.0 | 0.00 | 0.47 | 0.47 | 92 | 1013.5 |
| 20260906001204 | 74 | 298 | 0.0 | 0.0 | 0.02 | 0.47 | 0.47 | 92 | 1012.8 |
| 20260906000204 | 74 | 298 | 0.0 | 0.0 | 0.03 | 0.47 | 0.47 | 92 | 1012.4 |
| 20260905234204 | 74 | 298 | 0.0 | 0.0 | 0.39 | 0.47 | 0.47 | 90 | 1011.2 |
| 20260905233204 | 74 | 298 | 0.0 | 0.0 | 0.47 | 0.47 | 0.47 | 89 | 1010.2 |
| 20260905231204 | 76 | 298 | 0.0 | 1.7 | 0.45 | 0.45 | 0.45 | 85 | 1012.6 |
| 20260905230204 | 77 | 298 | 0.0 | 4.3 | 0.44 | 0.44 | 0.44 | 81 | 1013.5 |
| 20260905224204 | 88 | 218 | 0.9 | 14.8 | 0.08 | 0.08 | 0.08 | 62 | 1013.1 |
| 20260905223204 | 94 | 263 | 1.7 | 5.2 | 0.00 | 0.00 | 0.00 | 45 | 1012.4 |
| 20260905221203 | 99 | 78 | 0.0 | 0.0 | 0.00 | 0.00 | 0.00 | 43 | 1011.2 |
| 20260905220204 | 99 | 78 | 0.0 | 0.0 | 0.00 | 0.00 | 0.00 | 42 | 1011.0 |
| 20260905214203 | 101 | 78 | 0.0 | 0.0 | 0.00 | 0.00 | 0.00 | 40 | 1010.9 |
| 20260905213203 | 100 | 78 | 0.0 | 0.9 | 0.00 | 0.00 | 0.00 | 42 | 1010.8 |
| 20260905211204 | 101 | 78 | 0.0 | 0.0 | 0.00 | 0.00 | 0.00 | 41 | 1011.0 |
| 20260905204203 | 100 | 104 | 0.9 | 1.7 | 0.00 | 0.00 | 0.00 | 44 | 1011.6 |
| 20260905203203 | 100 | 103 | 0.0 | 0.9 | 0.00 | 0.00 | 0.00 | 42 | 1011.6 |
| 20260905201204 | 100 | 103 | 0.0 | 0.0 | 0.00 | 0.00 | 0.00 | 42 | 1012.0 |
| 20260905194203 | 102 | 103 | 0.0 | 2.6 | 0.00 | 0.00 | 0.00 | 39 | 1012.1 |
| 20260905193204 | 102 | 87 | 0.0 | 1.7 | 0.00 | 0.00 | 0.00 | 42 | 1012.2 |
| 20260905191204 | 104 | 89 | 0.0 | 0.9 | 0.00 | 0.00 | 0.00 | 39 | 1012.4 |
| 20260905190203 | 103 | 87 | 0.0 | 1.7 | 0.00 | 0.00 | 0.00 | 42 | 1012.5 |
| 20260905184204 | 100 | 46 | 0.0 | 0.9 | 0.00 | 0.00 | 0.00 | 42 | 1012.8 |
| 20260905183204 | 101 | 42 | 0.0 | 0.9 | 0.00 | 0.00 | 0.00 | 42 | 1013.0 |
| 20260905180204 | 99 | 336 | 0.0 | 2.6 | 0.00 | 0.00 | 0.00 | 45 | 1013.3 |
| 20260905174204 | 100 | 274 | 0.0 | 1.7 | 0.00 | 0.00 | 0.00 | 43 | 1013.6 |
| 20260905173204 | 100 | 75 | 0.0 | 2.6 | 0.00 | 0.00 | 0.00 | 44 | 1013.7 |
| 20260905171204 | 99 | 68 | 0.0 | 1.7 | 0.00 | 0.00 | 0.00 | 48 | 1013.8 |
| 20260905164204 | 98 | 121 | 0.0 | 4.3 | 0.00 | 0.00 | 0.00 | 46 | 1014.3 |
| 20260905161203 | 97 | 275 | 0.0 | 4.3 | 0.00 | 0.00 | 0.00 | 50 | 1014.7 |
| 20260905160204 | 97 | 74 | 0.0 | 1.7 | 0.00 | 0.00 | 0.00 | 51 | 1014.7 |
| 20260905151203 | 90 | 49 | 0.0 | 2.6 | 0.00 | 0.00 | 0.00 | 61 | 1015.0 |
| 20260905144204 | 85 | 78 | 0.0 | 2.6 | 0.00 | 0.00 | 0.00 | 68 | 1015.2 |
| 20260905143203 | 83 | 80 | 0.0 | 1.7 | 0.00 | 0.00 | 0.00 | 71 | 1015.2 |
| 20260905140203 | 80 | 226 | 0.0 | 0.0 | 0.00 | 0.00 | 0.00 | 81 | 1015.2 |
| 20260905133204 | 77 | 226 | 0.0 | 0.0 | 0.00 | 0.00 | 0.00 | 87 | 1015.4 |
| 20260905131204 | 76 | 226 | 0.0 | 0.0 | 0.00 | 0.00 | 0.00 | 88 | 1015.6 |
| 20260905130204 | 75 | 226 | 0.0 | 0.0 | 0.00 | 0.00 | 0.00 | 90 | 1015.7 |
| 20260905123203 | 74 | 226 | 0.0 | 0.0 | 0.00 | 0.00 | 0.00 | 92 | 1015.7 |